sensor_id;sensor_type;location;lat;lon;timestamp;P1;durP1;ratioP1;P2;durP2;ratioP2
67162;SDS011;54092;53.088;8.850;2023-08-12T00:00:15;13.35;;;6.65;;
67162;SDS011;54092;53.088;8.850;2023-08-12T00:02:42;13.82;;;6.65;;
67162;SDS011;54092;53.088;8.850;2023-08-12T00:05:08;10.38;;;6.53;;
67162;SDS011;54092;53.088;8.850;2023-08-12T00:10:03;15.00;;;7.95;;
67162;SDS011;54092;53.088;8.850;2023-08-12T00:12:31;13.38;;;6.85;;
67162;SDS011;54092;53.088;8.850;2023-08-12T00:14:58;14.23;;;6.78;;
67162;SDS011;54092;53.088;8.850;2023-08-12T00:17:23;12.98;;;6.70;;
67162;SDS011;54092;53.088;8.850;2023-08-12T00:19:49;11.98;;;6.60;;
67162;SDS011;54092;53.088;8.850;2023-08-12T00:22:15;14.32;;;7.25;;
67162;SDS011;54092;53.088;8.850;2023-08-12T00:24:40;11.00;;;7.20;;
67162;SDS011;54092;53.088;8.850;2023-08-12T00:27:06;12.23;;;6.85;;
67162;SDS011;54092;53.088;8.850;2023-08-12T00:29:33;13.63;;;7.55;;
67162;SDS011;54092;53.088;8.850;2023-08-12T00:31:59;10.35;;;6.75;;
67162;SDS011;54092;53.088;8.850;2023-08-12T00:34:25;16.35;;;6.38;;
67162;SDS011;54092;53.088;8.850;2023-08-12T00:36:51;13.82;;;7.35;;
67162;SDS011;54092;53.088;8.850;2023-08-12T00:39:16;14.27;;;7.53;;
67162;SDS011;54092;53.088;8.850;2023-08-12T00:41:42;11.95;;;7.32;;
67162;SDS011;54092;53.088;8.850;2023-08-12T00:44:07;14.23;;;7.57;;
67162;SDS011;54092;53.088;8.850;2023-08-12T00:46:33;13.88;;;7.63;;
67162;SDS011;54092;53.088;8.850;2023-08-12T00:48:59;14.13;;;7.32;;
67162;SDS011;54092;53.088;8.850;2023-08-12T00:51:25;13.00;;;7.43;;
67162;SDS011;54092;53.088;8.850;2023-08-12T00:53:51;11.82;;;6.85;;
67162;SDS011;54092;53.088;8.850;2023-08-12T00:56:19;12.77;;;7.43;;
67162;SDS011;54092;53.088;8.850;2023-08-12T00:58:46;15.60;;;7.20;;
67162;SDS011;54092;53.088;8.850;2023-08-12T01:01:11;12.82;;;7.65;;
67162;SDS011;54092;53.088;8.850;2023-08-12T01:03:38;13.68;;;6.93;;
67162;SDS011;54092;53.088;8.850;2023-08-12T01:06:04;15.48;;;7.55;;
67162;SDS011;54092;53.088;8.850;2023-08-12T01:08:31;14.57;;;7.03;;
67162;SDS011;54092;53.088;8.850;2023-08-12T01:11:00;12.25;;;6.82;;
67162;SDS011;54092;53.088;8.850;2023-08-12T01:14:09;13.80;;;7.47;;
67162;SDS011;54092;53.088;8.850;2023-08-12T01:16:47;14.35;;;7.30;;
67162;SDS011;54092;53.088;8.850;2023-08-12T01:19:33;15.15;;;7.43;;
67162;SDS011;54092;53.088;8.850;2023-08-12T01:22:00;15.02;;;7.20;;
67162;SDS011;54092;53.088;8.850;2023-08-12T01:24:27;14.38;;;7.00;;
67162;SDS011;54092;53.088;8.850;2023-08-12T01:26:59;14.55;;;7.28;;
67162;SDS011;54092;53.088;8.850;2023-08-12T01:29:25;14.98;;;6.90;;
67162;SDS011;54092;53.088;8.850;2023-08-12T01:31:51;15.40;;;6.70;;
67162;SDS011;54092;53.088;8.850;2023-08-12T01:37:04;9.52;;;6.60;;
67162;SDS011;54092;53.088;8.850;2023-08-12T01:39:32;17.77;;;6.75;;
67162;SDS011;54092;53.088;8.850;2023-08-12T01:41:58;16.90;;;7.03;;
67162;SDS011;54092;53.088;8.850;2023-08-12T01:44:24;12.13;;;7.15;;
67162;SDS011;54092;53.088;8.850;2023-08-12T01:46:50;12.95;;;6.95;;
67162;SDS011;54092;53.088;8.850;2023-08-12T01:49:15;11.15;;;6.93;;
67162;SDS011;54092;53.088;8.850;2023-08-12T01:51:41;11.75;;;7.53;;
67162;SDS011;54092;53.088;8.850;2023-08-12T01:54:06;15.35;;;7.30;;
67162;SDS011;54092;53.088;8.850;2023-08-12T01:56:32;13.98;;;6.65;;
67162;SDS011;54092;53.088;8.850;2023-08-12T01:58:57;12.45;;;6.95;;
67162;SDS011;54092;53.088;8.850;2023-08-12T02:01:23;11.35;;;6.50;;
67162;SDS011;54092;53.088;8.850;2023-08-12T02:03:48;11.63;;;7.20;;
67162;SDS011;54092;53.088;8.850;2023-08-12T02:06:14;15.40;;;7.75;;
67162;SDS011;54092;53.088;8.850;2023-08-12T02:08:39;17.48;;;7.90;;
67162;SDS011;54092;53.088;8.850;2023-08-12T02:11:05;13.60;;;7.68;;
67162;SDS011;54092;53.088;8.850;2023-08-12T02:13:30;12.43;;;7.28;;
67162;SDS011;54092;53.088;8.850;2023-08-12T02:15:56;17.17;;;7.13;;
67162;SDS011;54092;53.088;8.850;2023-08-12T02:18:22;18.30;;;8.05;;
67162;SDS011;54092;53.088;8.850;2023-08-12T02:20:47;15.70;;;7.32;;
67162;SDS011;54092;53.088;8.850;2023-08-12T02:23:13;17.48;;;7.45;;
67162;SDS011;54092;53.088;8.850;2023-08-12T02:25:39;15.88;;;7.80;;
67162;SDS011;54092;53.088;8.850;2023-08-12T02:28:04;17.52;;;7.28;;
67162;SDS011;54092;53.088;8.850;2023-08-12T02:30:30;13.95;;;8.02;;
67162;SDS011;54092;53.088;8.850;2023-08-12T02:32:56;12.82;;;7.03;;
67162;SDS011;54092;53.088;8.850;2023-08-12T02:35:21;16.95;;;7.78;;
67162;SDS011;54092;53.088;8.850;2023-08-12T02:37:50;16.33;;;7.35;;
67162;SDS011;54092;53.088;8.850;2023-08-12T02:40:15;13.40;;;7.68;;
67162;SDS011;54092;53.088;8.850;2023-08-12T02:42:41;17.20;;;8.05;;
67162;SDS011;54092;53.088;8.850;2023-08-12T02:45:07;16.25;;;7.53;;
67162;SDS011;54092;53.088;8.850;2023-08-12T02:47:32;14.10;;;6.78;;
67162;SDS011;54092;53.088;8.850;2023-08-12T02:49:58;17.10;;;7.50;;
67162;SDS011;54092;53.088;8.850;2023-08-12T02:52:23;15.07;;;7.78;;
67162;SDS011;54092;53.088;8.850;2023-08-12T02:54:49;20.75;;;7.82;;
67162;SDS011;54092;53.088;8.850;2023-08-12T02:57:14;12.57;;;7.68;;
67162;SDS011;54092;53.088;8.850;2023-08-12T02:59:40;17.92;;;8.32;;
67162;SDS011;54092;53.088;8.850;2023-08-12T03:02:06;16.77;;;8.63;;
67162;SDS011;54092;53.088;8.850;2023-08-12T03:04:31;15.30;;;9.93;;
67162;SDS011;54092;53.088;8.850;2023-08-12T03:06:57;18.65;;;10.57;;
67162;SDS011;54092;53.088;8.850;2023-08-12T03:09:22;16.33;;;8.80;;
67162;SDS011;54092;53.088;8.850;2023-08-12T03:11:48;18.30;;;8.85;;
67162;SDS011;54092;53.088;8.850;2023-08-12T03:14:13;14.50;;;8.80;;
67162;SDS011;54092;53.088;8.850;2023-08-12T03:16:39;19.13;;;9.55;;
67162;SDS011;54092;53.088;8.850;2023-08-12T03:19:04;18.23;;;9.35;;
67162;SDS011;54092;53.088;8.850;2023-08-12T03:21:30;19.10;;;9.68;;
67162;SDS011;54092;53.088;8.850;2023-08-12T03:23:55;18.33;;;9.68;;
67162;SDS011;54092;53.088;8.850;2023-08-12T03:26:21;18.08;;;9.73;;
67162;SDS011;54092;53.088;8.850;2023-08-12T03:28:47;20.92;;;10.25;;
67162;SDS011;54092;53.088;8.850;2023-08-12T03:31:12;24.15;;;10.15;;
67162;SDS011;54092;53.088;8.850;2023-08-12T03:33:38;23.48;;;12.23;;
67162;SDS011;54092;53.088;8.850;2023-08-12T03:36:03;20.33;;;10.10;;
67162;SDS011;54092;53.088;8.850;2023-08-12T03:38:29;23.48;;;11.15;;
67162;SDS011;54092;53.088;8.850;2023-08-12T03:40:55;23.23;;;11.80;;
67162;SDS011;54092;53.088;8.850;2023-08-12T03:43:20;20.85;;;11.45;;
67162;SDS011;54092;53.088;8.850;2023-08-12T03:45:46;22.67;;;10.98;;
67162;SDS011;54092;53.088;8.850;2023-08-12T03:48:12;21.25;;;12.02;;
67162;SDS011;54092;53.088;8.850;2023-08-12T03:50:37;20.92;;;11.63;;
67162;SDS011;54092;53.088;8.850;2023-08-12T03:53:04;26.58;;;12.77;;
67162;SDS011;54092;53.088;8.850;2023-08-12T03:55:30;20.42;;;11.60;;
67162;SDS011;54092;53.088;8.850;2023-08-12T03:57:57;24.20;;;13.98;;
67162;SDS011;54092;53.088;8.850;2023-08-12T04:00:22;20.63;;;11.38;;
67162;SDS011;54092;53.088;8.850;2023-08-12T04:02:48;22.40;;;12.38;;
67162;SDS011;54092;53.088;8.850;2023-08-12T04:05:13;22.25;;;12.80;;
67162;SDS011;54092;53.088;8.850;2023-08-12T04:07:40;23.75;;;12.02;;
67162;SDS011;54092;53.088;8.850;2023-08-12T04:10:06;20.05;;;12.52;;
67162;SDS011;54092;53.088;8.850;2023-08-12T04:12:32;23.90;;;12.70;;
67162;SDS011;54092;53.088;8.850;2023-08-12T04:14:57;28.10;;;14.52;;
67162;SDS011;54092;53.088;8.850;2023-08-12T04:17:23;26.10;;;13.05;;
67162;SDS011;54092;53.088;8.850;2023-08-12T04:19:48;23.08;;;13.20;;
67162;SDS011;54092;53.088;8.850;2023-08-12T04:22:14;29.63;;;13.73;;
67162;SDS011;54092;53.088;8.850;2023-08-12T04:24:40;28.35;;;13.60;;
67162;SDS011;54092;53.088;8.850;2023-08-12T04:27:05;28.05;;;14.07;;
67162;SDS011;54092;53.088;8.850;2023-08-12T04:29:31;24.55;;;14.13;;
67162;SDS011;54092;53.088;8.850;2023-08-12T04:31:56;28.63;;;14.05;;
67162;SDS011;54092;53.088;8.850;2023-08-12T04:34:22;23.25;;;13.77;;
67162;SDS011;54092;53.088;8.850;2023-08-12T04:36:47;25.25;;;13.57;;
67162;SDS011;54092;53.088;8.850;2023-08-12T04:39:13;26.13;;;13.52;;
67162;SDS011;54092;53.088;8.850;2023-08-12T04:41:38;26.92;;;14.75;;
67162;SDS011;54092;53.088;8.850;2023-08-12T04:44:04;26.90;;;14.13;;
67162;SDS011;54092;53.088;8.850;2023-08-12T04:46:30;30.45;;;15.18;;
67162;SDS011;54092;53.088;8.850;2023-08-12T04:48:56;26.35;;;14.57;;
67162;SDS011;54092;53.088;8.850;2023-08-12T04:51:21;28.25;;;14.93;;
67162;SDS011;54092;53.088;8.850;2023-08-12T04:53:47;30.60;;;14.65;;
67162;SDS011;54092;53.088;8.850;2023-08-12T04:56:12;24.25;;;15.38;;
67162;SDS011;54092;53.088;8.850;2023-08-12T04:58:38;26.27;;;15.27;;
67162;SDS011;54092;53.088;8.850;2023-08-12T05:01:03;32.22;;;15.63;;
67162;SDS011;54092;53.088;8.850;2023-08-12T05:03:29;26.55;;;15.30;;
67162;SDS011;54092;53.088;8.850;2023-08-12T05:05:55;26.67;;;16.02;;
67162;SDS011;54092;53.088;8.850;2023-08-12T05:08:20;33.10;;;17.15;;
67162;SDS011;54092;53.088;8.850;2023-08-12T05:10:49;29.42;;;15.93;;
67162;SDS011;54092;53.088;8.850;2023-08-12T05:13:15;29.05;;;17.08;;
67162;SDS011;54092;53.088;8.850;2023-08-12T05:15:40;30.52;;;17.45;;
67162;SDS011;54092;53.088;8.850;2023-08-12T05:18:06;32.85;;;18.42;;
67162;SDS011;54092;53.088;8.850;2023-08-12T05:20:32;29.27;;;15.73;;
67162;SDS011;54092;53.088;8.850;2023-08-12T05:22:57;36.80;;;17.20;;
67162;SDS011;54092;53.088;8.850;2023-08-12T05:25:23;34.17;;;17.70;;
67162;SDS011;54092;53.088;8.850;2023-08-12T05:27:49;34.92;;;17.80;;
67162;SDS011;54092;53.088;8.850;2023-08-12T05:30:15;35.58;;;17.50;;
67162;SDS011;54092;53.088;8.850;2023-08-12T05:32:40;29.65;;;16.92;;
67162;SDS011;54092;53.088;8.850;2023-08-12T05:35:06;35.20;;;18.33;;
67162;SDS011;54092;53.088;8.850;2023-08-12T05:37:32;29.17;;;18.52;;
67162;SDS011;54092;53.088;8.850;2023-08-12T05:39:57;36.70;;;18.48;;
67162;SDS011;54092;53.088;8.850;2023-08-12T05:42:23;32.75;;;17.55;;
67162;SDS011;54092;53.088;8.850;2023-08-12T05:44:48;34.38;;;19.08;;
67162;SDS011;54092;53.088;8.850;2023-08-12T05:47:14;31.20;;;17.27;;
67162;SDS011;54092;53.088;8.850;2023-08-12T05:49:39;37.53;;;18.08;;
67162;SDS011;54092;53.088;8.850;2023-08-12T05:52:05;29.20;;;15.50;;
67162;SDS011;54092;53.088;8.850;2023-08-12T05:54:30;30.40;;;16.63;;
67162;SDS011;54092;53.088;8.850;2023-08-12T05:56:57;30.40;;;16.63;;
67162;SDS011;54092;53.088;8.850;2023-08-12T05:59:23;29.02;;;15.55;;
67162;SDS011;54092;53.088;8.850;2023-08-12T06:01:49;25.25;;;15.40;;
67162;SDS011;54092;53.088;8.850;2023-08-12T06:04:14;27.10;;;14.60;;
67162;SDS011;54092;53.088;8.850;2023-08-12T06:06:40;23.48;;;14.43;;
67162;SDS011;54092;53.088;8.850;2023-08-12T06:09:06;23.75;;;13.98;;
67162;SDS011;54092;53.088;8.850;2023-08-12T06:11:32;26.40;;;14.65;;
67162;SDS011;54092;53.088;8.850;2023-08-12T06:13:57;24.92;;;13.57;;
67162;SDS011;54092;53.088;8.850;2023-08-12T06:16:23;25.25;;;14.45;;
67162;SDS011;54092;53.088;8.850;2023-08-12T06:18:48;21.70;;;12.38;;
67162;SDS011;54092;53.088;8.850;2023-08-12T06:21:14;30.67;;;13.93;;
67162;SDS011;54092;53.088;8.850;2023-08-12T06:23:39;26.05;;;13.98;;
67162;SDS011;54092;53.088;8.850;2023-08-12T06:26:05;20.67;;;13.00;;
67162;SDS011;54092;53.088;8.850;2023-08-12T06:28:30;20.80;;;13.05;;
67162;SDS011;54092;53.088;8.850;2023-08-12T06:30:56;28.38;;;14.18;;
67162;SDS011;54092;53.088;8.850;2023-08-12T06:33:22;26.52;;;14.80;;
67162;SDS011;54092;53.088;8.850;2023-08-12T06:35:49;30.85;;;15.23;;
67162;SDS011;54092;53.088;8.850;2023-08-12T06:38:15;22.75;;;12.52;;
67162;SDS011;54092;53.088;8.850;2023-08-12T06:40:40;26.42;;;13.02;;
67162;SDS011;54092;53.088;8.850;2023-08-12T06:43:06;21.95;;;12.32;;
67162;SDS011;54092;53.088;8.850;2023-08-12T06:45:33;24.35;;;13.63;;
67162;SDS011;54092;53.088;8.850;2023-08-12T06:47:59;24.60;;;12.98;;
67162;SDS011;54092;53.088;8.850;2023-08-12T06:50:24;21.40;;;12.63;;
67162;SDS011;54092;53.088;8.850;2023-08-12T06:52:50;24.92;;;13.10;;
67162;SDS011;54092;53.088;8.850;2023-08-12T06:55:16;23.45;;;13.05;;
67162;SDS011;54092;53.088;8.850;2023-08-12T06:57:41;24.17;;;13.40;;
67162;SDS011;54092;53.088;8.850;2023-08-12T07:00:07;23.35;;;13.27;;
67162;SDS011;54092;53.088;8.850;2023-08-12T07:02:33;23.63;;;12.85;;
67162;SDS011;54092;53.088;8.850;2023-08-12T07:04:58;23.48;;;13.10;;
67162;SDS011;54092;53.088;8.850;2023-08-12T07:07:24;21.35;;;13.50;;
67162;SDS011;54092;53.088;8.850;2023-08-12T07:09:49;22.88;;;12.85;;
67162;SDS011;54092;53.088;8.850;2023-08-12T07:12:15;23.50;;;14.45;;
67162;SDS011;54092;53.088;8.850;2023-08-12T07:14:40;25.90;;;12.82;;
67162;SDS011;54092;53.088;8.850;2023-08-12T07:17:06;25.00;;;14.55;;
67162;SDS011;54092;53.088;8.850;2023-08-12T07:19:31;25.92;;;14.77;;
67162;SDS011;54092;53.088;8.850;2023-08-12T07:21:57;29.95;;;15.65;;
67162;SDS011;54092;53.088;8.850;2023-08-12T07:24:23;30.10;;;16.42;;
67162;SDS011;54092;53.088;8.850;2023-08-12T07:26:48;30.23;;;17.35;;
67162;SDS011;54092;53.088;8.850;2023-08-12T07:29:14;33.60;;;18.13;;
67162;SDS011;54092;53.088;8.850;2023-08-12T07:31:39;32.88;;;18.15;;
67162;SDS011;54092;53.088;8.850;2023-08-12T07:34:05;31.52;;;19.60;;
67162;SDS011;54092;53.088;8.850;2023-08-12T07:36:31;38.22;;;19.33;;
67162;SDS011;54092;53.088;8.850;2023-08-12T07:38:58;33.90;;;18.73;;
67162;SDS011;54092;53.088;8.850;2023-08-12T07:41:23;33.90;;;20.13;;
67162;SDS011;54092;53.088;8.850;2023-08-12T07:43:52;33.95;;;19.38;;
67162;SDS011;54092;53.088;8.850;2023-08-12T07:46:17;37.90;;;20.58;;
67162;SDS011;54092;53.088;8.850;2023-08-12T07:48:43;36.38;;;20.58;;
67162;SDS011;54092;53.088;8.850;2023-08-12T07:51:09;41.10;;;20.88;;
67162;SDS011;54092;53.088;8.850;2023-08-12T07:53:34;41.88;;;21.05;;
67162;SDS011;54092;53.088;8.850;2023-08-12T07:56:00;43.05;;;22.90;;
67162;SDS011;54092;53.088;8.850;2023-08-12T07:58:25;36.28;;;20.67;;
67162;SDS011;54092;53.088;8.850;2023-08-12T08:00:54;34.58;;;19.50;;
67162;SDS011;54092;53.088;8.850;2023-08-12T08:03:19;36.17;;;20.10;;
67162;SDS011;54092;53.088;8.850;2023-08-12T08:05:45;31.35;;;18.23;;
67162;SDS011;54092;53.088;8.850;2023-08-12T08:08:12;34.60;;;18.25;;
67162;SDS011;54092;53.088;8.850;2023-08-12T08:10:38;29.65;;;17.27;;
67162;SDS011;54092;53.088;8.850;2023-08-12T08:13:03;30.67;;;17.88;;
67162;SDS011;54092;53.088;8.850;2023-08-12T08:15:29;29.00;;;17.50;;
67162;SDS011;54092;53.088;8.850;2023-08-12T08:17:54;33.30;;;17.98;;
67162;SDS011;54092;53.088;8.850;2023-08-12T08:20:20;29.85;;;17.52;;
67162;SDS011;54092;53.088;8.850;2023-08-12T08:22:45;30.13;;;16.92;;
67162;SDS011;54092;53.088;8.850;2023-08-12T08:25:12;33.00;;;17.75;;
67162;SDS011;54092;53.088;8.850;2023-08-12T08:27:37;30.25;;;16.83;;
67162;SDS011;54092;53.088;8.850;2023-08-12T08:30:03;33.17;;;18.42;;
67162;SDS011;54092;53.088;8.850;2023-08-12T08:32:30;33.78;;;18.23;;
67162;SDS011;54092;53.088;8.850;2023-08-12T08:34:55;29.55;;;17.15;;
67162;SDS011;54092;53.088;8.850;2023-08-12T08:37:21;32.88;;;18.30;;
67162;SDS011;54092;53.088;8.850;2023-08-12T08:39:46;35.03;;;19.42;;
67162;SDS011;54092;53.088;8.850;2023-08-12T08:42:12;36.38;;;20.15;;
67162;SDS011;54092;53.088;8.850;2023-08-12T08:44:40;30.33;;;18.55;;
67162;SDS011;54092;53.088;8.850;2023-08-12T08:47:07;33.83;;;18.30;;
67162;SDS011;54092;53.088;8.850;2023-08-12T08:49:33;34.00;;;17.77;;
67162;SDS011;54092;53.088;8.850;2023-08-12T08:52:00;33.30;;;18.50;;
67162;SDS011;54092;53.088;8.850;2023-08-12T08:54:27;30.33;;;17.20;;
67162;SDS011;54092;53.088;8.850;2023-08-12T08:56:53;35.03;;;18.85;;
67162;SDS011;54092;53.088;8.850;2023-08-12T08:59:19;31.48;;;17.45;;
67162;SDS011;54092;53.088;8.850;2023-08-12T09:01:46;30.35;;;17.88;;
67162;SDS011;54092;53.088;8.850;2023-08-12T09:04:16;28.10;;;17.95;;
67162;SDS011;54092;53.088;8.850;2023-08-12T09:06:42;30.95;;;17.90;;
67162;SDS011;54092;53.088;8.850;2023-08-12T09:09:10;32.50;;;18.38;;
67162;SDS011;54092;53.088;8.850;2023-08-12T09:11:40;31.17;;;16.93;;
67162;SDS011;54092;53.088;8.850;2023-08-12T09:14:06;31.35;;;18.25;;
67162;SDS011;54092;53.088;8.850;2023-08-12T09:16:32;34.70;;;18.90;;
67162;SDS011;54092;53.088;8.850;2023-08-12T09:18:57;36.22;;;19.15;;
67162;SDS011;54092;53.088;8.850;2023-08-12T09:21:23;32.85;;;20.00;;
67162;SDS011;54092;53.088;8.850;2023-08-12T09:23:49;37.05;;;20.95;;
67162;SDS011;54092;53.088;8.850;2023-08-12T09:26:18;32.53;;;19.23;;
67162;SDS011;54092;53.088;8.850;2023-08-12T09:28:46;32.63;;;19.80;;
67162;SDS011;54092;53.088;8.850;2023-08-12T09:31:26;31.70;;;18.58;;
67162;SDS011;54092;53.088;8.850;2023-08-12T09:33:53;32.67;;;19.52;;
67162;SDS011;54092;53.088;8.850;2023-08-12T09:36:39;41.92;;;22.98;;
67162;SDS011;54092;53.088;8.850;2023-08-12T09:39:05;35.28;;;21.73;;
67162;SDS011;54092;53.088;8.850;2023-08-12T09:41:33;33.00;;;20.63;;
67162;SDS011;54092;53.088;8.850;2023-08-12T09:43:59;36.08;;;21.60;;
67162;SDS011;54092;53.088;8.850;2023-08-12T09:46:27;33.85;;;21.05;;
67162;SDS011;54092;53.088;8.850;2023-08-12T09:48:52;35.65;;;21.98;;
67162;SDS011;54092;53.088;8.850;2023-08-12T09:51:18;34.30;;;22.30;;
67162;SDS011;54092;53.088;8.850;2023-08-12T09:53:44;37.95;;;22.30;;
67162;SDS011;54092;53.088;8.850;2023-08-12T09:56:12;37.67;;;22.38;;
67162;SDS011;54092;53.088;8.850;2023-08-12T09:58:42;33.40;;;21.08;;
67162;SDS011;54092;53.088;8.850;2023-08-12T10:01:08;39.42;;;21.73;;
67162;SDS011;54092;53.088;8.850;2023-08-12T10:03:36;40.60;;;23.58;;
67162;SDS011;54092;53.088;8.850;2023-08-12T10:06:02;35.90;;;20.48;;
67162;SDS011;54092;53.088;8.850;2023-08-12T10:08:28;43.05;;;23.40;;
67162;SDS011;54092;53.088;8.850;2023-08-12T10:10:54;39.97;;;23.80;;
67162;SDS011;54092;53.088;8.850;2023-08-12T10:13:23;44.13;;;24.35;;
67162;SDS011;54092;53.088;8.850;2023-08-12T10:15:49;43.08;;;23.95;;
67162;SDS011;54092;53.088;8.850;2023-08-12T10:18:15;41.67;;;23.63;;
67162;SDS011;54092;53.088;8.850;2023-08-12T10:20:43;41.15;;;24.42;;
67162;SDS011;54092;53.088;8.850;2023-08-12T10:23:14;45.30;;;25.67;;
67162;SDS011;54092;53.088;8.850;2023-08-12T10:25:41;47.05;;;25.63;;
67162;SDS011;54092;53.088;8.850;2023-08-12T10:28:08;41.25;;;23.00;;
67162;SDS011;54092;53.088;8.850;2023-08-12T10:30:34;40.85;;;22.30;;
67162;SDS011;54092;53.088;8.850;2023-08-12T10:33:00;44.28;;;23.65;;
67162;SDS011;54092;53.088;8.850;2023-08-12T10:35:42;40.13;;;23.23;;
67162;SDS011;54092;53.088;8.850;2023-08-12T10:38:13;37.83;;;22.08;;
67162;SDS011;54092;53.088;8.850;2023-08-12T10:40:46;41.33;;;23.95;;
67162;SDS011;54092;53.088;8.850;2023-08-12T10:43:12;45.35;;;24.52;;
67162;SDS011;54092;53.088;8.850;2023-08-12T10:48:16;44.08;;;23.63;;
67162;SDS011;54092;53.088;8.850;2023-08-12T10:50:55;38.70;;;22.17;;
67162;SDS011;54092;53.088;8.850;2023-08-12T10:53:24;44.70;;;23.63;;
67162;SDS011;54092;53.088;8.850;2023-08-12T10:55:55;39.25;;;23.13;;
67162;SDS011;54092;53.088;8.850;2023-08-12T10:58:46;38.92;;;22.67;;
67162;SDS011;54092;53.088;8.850;2023-08-12T11:01:21;40.92;;;24.30;;
67162;SDS011;54092;53.088;8.850;2023-08-12T11:03:48;40.33;;;23.48;;
67162;SDS011;54092;53.088;8.850;2023-08-12T11:06:15;45.83;;;24.88;;
67162;SDS011;54092;53.088;8.850;2023-08-12T11:08:53;41.72;;;24.02;;
67162;SDS011;54092;53.088;8.850;2023-08-12T11:11:24;39.85;;;23.70;;
67162;SDS011;54092;53.088;8.850;2023-08-12T11:13:53;42.53;;;23.33;;
67162;SDS011;54092;53.088;8.850;2023-08-12T11:18:56;34.80;;;22.02;;
67162;SDS011;54092;53.088;8.850;2023-08-12T11:21:22;38.92;;;21.98;;
67162;SDS011;54092;53.088;8.850;2023-08-12T11:23:48;35.33;;;19.83;;
67162;SDS011;54092;53.088;8.850;2023-08-12T11:26:15;35.00;;;20.70;;
67162;SDS011;54092;53.088;8.850;2023-08-12T11:28:41;39.83;;;21.52;;
67162;SDS011;54092;53.088;8.850;2023-08-12T11:31:06;34.38;;;20.75;;
67162;SDS011;54092;53.088;8.850;2023-08-12T11:33:32;33.45;;;19.88;;
67162;SDS011;54092;53.088;8.850;2023-08-12T11:35:58;33.95;;;18.73;;
67162;SDS011;54092;53.088;8.850;2023-08-12T11:38:24;25.80;;;18.15;;
67162;SDS011;54092;53.088;8.850;2023-08-12T11:40:50;26.58;;;16.92;;
67162;SDS011;54092;53.088;8.850;2023-08-12T11:43:15;29.58;;;16.42;;
67162;SDS011;54092;53.088;8.850;2023-08-12T11:45:41;26.60;;;16.60;;
67162;SDS011;54092;53.088;8.850;2023-08-12T11:48:07;31.20;;;16.67;;
67162;SDS011;54092;53.088;8.850;2023-08-12T11:50:34;27.63;;;18.27;;
67162;SDS011;54092;53.088;8.850;2023-08-12T11:52:59;27.60;;;17.63;;
67162;SDS011;54092;53.088;8.850;2023-08-12T11:55:25;27.40;;;18.08;;
67162;SDS011;54092;53.088;8.850;2023-08-12T11:57:51;30.83;;;18.55;;
67162;SDS011;54092;53.088;8.850;2023-08-12T12:00:17;28.85;;;18.48;;
67162;SDS011;54092;53.088;8.850;2023-08-12T12:02:47;31.10;;;18.08;;
67162;SDS011;54092;53.088;8.850;2023-08-12T12:05:18;31.13;;;17.83;;
67162;SDS011;54092;53.088;8.850;2023-08-12T12:07:45;27.60;;;17.63;;
67162;SDS011;54092;53.088;8.850;2023-08-12T12:10:17;38.57;;;19.00;;
67162;SDS011;54092;53.088;8.850;2023-08-12T12:12:53;28.83;;;19.13;;
67162;SDS011;54092;53.088;8.850;2023-08-12T12:15:19;26.83;;;18.30;;
67162;SDS011;54092;53.088;8.850;2023-08-12T12:17:45;31.50;;;19.90;;
67162;SDS011;54092;53.088;8.850;2023-08-12T12:20:15;33.92;;;20.25;;
67162;SDS011;54092;53.088;8.850;2023-08-12T12:22:41;28.98;;;19.67;;
67162;SDS011;54092;53.088;8.850;2023-08-12T12:25:11;33.42;;;20.50;;
67162;SDS011;54092;53.088;8.850;2023-08-12T12:27:38;35.75;;;20.30;;
67162;SDS011;54092;53.088;8.850;2023-08-12T12:30:05;31.17;;;18.77;;
67162;SDS011;54092;53.088;8.850;2023-08-12T12:32:35;29.25;;;18.13;;
67162;SDS011;54092;53.088;8.850;2023-08-12T12:35:00;28.17;;;17.15;;
67162;SDS011;54092;53.088;8.850;2023-08-12T12:37:26;25.05;;;17.35;;
67162;SDS011;54092;53.088;8.850;2023-08-12T12:39:52;26.02;;;16.52;;
67162;SDS011;54092;53.088;8.850;2023-08-12T12:42:18;30.65;;;16.02;;
67162;SDS011;54092;53.088;8.850;2023-08-12T12:44:44;28.63;;;17.73;;
67162;SDS011;54092;53.088;8.850;2023-08-12T12:47:10;25.05;;;16.98;;
67162;SDS011;54092;53.088;8.850;2023-08-12T12:49:37;26.52;;;17.77;;
67162;SDS011;54092;53.088;8.850;2023-08-12T12:52:08;24.52;;;16.70;;
67162;SDS011;54092;53.088;8.850;2023-08-12T12:54:34;22.70;;;16.08;;
67162;SDS011;54092;53.088;8.850;2023-08-12T12:56:59;24.70;;;15.73;;
67162;SDS011;54092;53.088;8.850;2023-08-12T12:59:26;24.08;;;15.80;;
67162;SDS011;54092;53.088;8.850;2023-08-12T13:01:52;24.73;;;15.90;;
67162;SDS011;54092;53.088;8.850;2023-08-12T13:04:17;24.70;;;15.07;;
67162;SDS011;54092;53.088;8.850;2023-08-12T13:06:43;22.83;;;14.68;;
67162;SDS011;54092;53.088;8.850;2023-08-12T13:09:09;26.27;;;16.15;;
67162;SDS011;54092;53.088;8.850;2023-08-12T13:11:34;20.90;;;13.68;;
67162;SDS011;54092;53.088;8.850;2023-08-12T13:14:00;22.02;;;13.73;;
67162;SDS011;54092;53.088;8.850;2023-08-12T13:16:26;19.20;;;12.77;;
67162;SDS011;54092;53.088;8.850;2023-08-12T13:18:52;20.50;;;13.10;;
67162;SDS011;54092;53.088;8.850;2023-08-12T13:21:17;16.70;;;12.02;;
67162;SDS011;54092;53.088;8.850;2023-08-12T13:23:43;19.60;;;13.50;;
67162;SDS011;54092;53.088;8.850;2023-08-12T13:26:08;17.00;;;11.65;;
67162;SDS011;54092;53.088;8.850;2023-08-12T13:28:34;14.70;;;10.00;;
67162;SDS011;54092;53.088;8.850;2023-08-12T13:30:59;17.23;;;11.45;;
67162;SDS011;54092;53.088;8.850;2023-08-12T13:33:25;14.27;;;10.60;;
67162;SDS011;54092;53.088;8.850;2023-08-12T13:35:50;13.90;;;8.45;;
67162;SDS011;54092;53.088;8.850;2023-08-12T13:38:16;11.93;;;8.18;;
67162;SDS011;54092;53.088;8.850;2023-08-12T13:40:41;12.63;;;7.78;;
67162;SDS011;54092;53.088;8.850;2023-08-12T13:43:07;12.57;;;8.15;;
67162;SDS011;54092;53.088;8.850;2023-08-12T13:45:33;12.93;;;8.95;;
67162;SDS011;54092;53.088;8.850;2023-08-12T13:47:58;11.40;;;8.43;;
67162;SDS011;54092;53.088;8.850;2023-08-12T13:50:24;12.02;;;8.55;;
67162;SDS011;54092;53.088;8.850;2023-08-12T13:52:49;12.88;;;9.05;;
67162;SDS011;54092;53.088;8.850;2023-08-12T13:55:15;12.55;;;9.25;;
67162;SDS011;54092;53.088;8.850;2023-08-12T13:57:41;13.13;;;9.45;;
67162;SDS011;54092;53.088;8.850;2023-08-12T14:00:06;13.02;;;8.77;;
67162;SDS011;54092;53.088;8.850;2023-08-12T14:02:35;13.57;;;9.50;;
67162;SDS011;54092;53.088;8.850;2023-08-12T14:05:04;13.48;;;8.82;;
67162;SDS011;54092;53.088;8.850;2023-08-12T14:07:30;12.90;;;8.98;;
67162;SDS011;54092;53.088;8.850;2023-08-12T14:09:56;13.50;;;9.02;;
67162;SDS011;54092;53.088;8.850;2023-08-12T14:12:22;13.15;;;9.52;;
67162;SDS011;54092;53.088;8.850;2023-08-12T14:14:48;12.20;;;8.23;;
67162;SDS011;54092;53.088;8.850;2023-08-12T14:17:14;11.05;;;8.25;;
67162;SDS011;54092;53.088;8.850;2023-08-12T14:19:43;10.60;;;8.30;;
67162;SDS011;54092;53.088;8.850;2023-08-12T14:22:09;12.90;;;8.85;;
67162;SDS011;54092;53.088;8.850;2023-08-12T14:24:35;8.00;;;6.03;;
67162;SDS011;54092;53.088;8.850;2023-08-12T14:27:00;6.13;;;4.40;;
67162;SDS011;54092;53.088;8.850;2023-08-12T14:29:26;5.10;;;3.00;;
67162;SDS011;54092;53.088;8.850;2023-08-12T14:31:52;3.58;;;2.50;;